ěÝzenÝ letovÚho provozu ╚eskÚ republiky
Letiste: LKLN Aktualizace: 10.05.2021 05:26:24  UTC
 METAR LKLN 10.05. 05:30 ...
METAR LKLN 100530Z AUTO VRB02KT CAVOK 13/09 Q1010=